Time;durP1;ratioP1;P1;durP2;ratioP2;P2;SDS_P1;SDS_P2;PMS_P1;PMS_P2;Temp;Humidity;BMP_temperature;BMP_pressure;BME280_temperature;BME280_humidity;BME280_pressure;Samples;Min_cycle;Max_cycle;Signal;HPM_P1;HPM_P2
2021/05/01 00:02:11;;;;;;;26.07;15.67;;;;;;;5.32;84.66;101222.34;5074238;28;20047;-64
2021/05/01 00:04:37;;;;;;;29.57;16.57;;;;;;;5.34;84.57;101226.56;5057380;28;20127;-64
2021/05/01 00:07:03;;;;;;;27.20;16.08;;;;;;;5.26;84.49;101219.19;5091918;28;20036;-64
2021/05/01 00:09:28;;;;;;;25.92;15.88;;;;;;;5.27;84.63;101218.25;5091228;28;20047;-64
2021/05/01 00:11:54;;;;;;;23.63;14.77;;;;;;;5.32;84.56;101223.19;5091756;28;20051;-64
2021/05/01 00:14:19;;;;;;;25.80;16.13;;;;;;;5.34;84.58;101223.06;5091680;28;20082;-64
2021/05/01 00:16:45;;;;;;;30.30;17.55;;;;;;;5.31;84.26;101218.84;5091723;28;20111;-64
2021/05/01 00:19:11;;;;;;;26.73;15.77;;;;;;;5.39;83.78;101218.28;5091373;28;20035;-64
2021/05/01 00:21:37;;;;;;;28.13;16.65;;;;;;;5.44;83.60;101216.13;5057194;28;20059;-64
2021/05/01 00:24:02;;;;;;;23.53;15.63;;;;;;;5.42;83.70;101215.38;5057092;28;20127;-64
2021/05/01 00:26:28;;;;;;;29.35;16.23;;;;;;;5.42;83.58;101221.50;5091678;28;20346;-64
2021/05/01 00:28:53;;;;;;;28.97;16.40;;;;;;;5.41;83.50;101213.72;5091101;28;20036;-64
2021/05/01 00:31:20;;;;;;;25.63;14.90;;;;;;;5.42;83.58;101215.38;5073821;28;20028;-64
2021/05/01 00:33:46;;;;;;;24.58;16.45;;;;;;;5.41;83.79;101216.34;5073824;28;20037;-64
2021/05/01 00:36:11;;;;;;;28.30;17.27;;;;;;;5.41;83.46;101217.19;5073702;28;20465;-64
2021/05/01 00:38:37;;;;;;;22.83;15.43;;;;;;;5.39;83.56;101219.09;5056566;28;20126;-64
2021/05/01 00:41:02;;;;;;;24.53;15.77;;;;;;;5.44;83.37;101221.41;5091319;28;20060;-64
2021/05/01 00:43:28;;;;;;;25.10;15.10;;;;;;;5.42;83.44;101215.38;5091261;28;20278;-64
2021/05/01 00:45:54;;;;;;;25.37;15.43;;;;;;;5.40;83.56;101220.78;5091201;28;20453;-64
2021/05/01 00:48:19;;;;;;;29.17;16.73;;;;;;;5.38;83.51;101220.06;5073087;28;20715;-64
2021/05/01 00:50:45;;;;;;;24.27;14.97;;;;;;;5.40;83.39;101226.06;5091022;28;20043;-64
2021/05/01 00:53:12;;;;;;;26.20;15.30;;;;;;;5.40;83.76;101215.50;5073064;28;20031;-64
2021/05/01 00:55:40;;;;;;;24.15;15.63;;;;;;;5.43;83.56;101219.69;5073127;28;20065;-64
2021/05/01 00:58:06;;;;;;;25.80;17.40;;;;;;;5.38;83.85;101222.69;5072835;28;20064;-64
2021/05/01 01:00:48;;;;;;;23.20;15.43;;;;;;;5.42;83.64;101216.22;5090957;28;20044;-64
2021/05/01 01:03:14;;;;;;;25.95;16.33;;;;;;;5.40;83.99;101209.34;5091010;28;20449;-64
2021/05/01 01:05:39;;;;;;;29.87;15.93;;;;;;;5.45;84.06;101226.56;5072807;28;20108;-64
2021/05/01 01:08:05;;;;;;;18.90;12.33;;;;;;;5.48;83.70;101222.88;5072912;28;20115;-64
2021/05/01 01:10:30;;;;;;;27.67;15.57;;;;;;;5.55;83.47;101217.91;5090901;28;20437;-64
2021/05/01 01:12:56;;;;;;;24.13;16.07;;;;;;;5.49;83.61;101221.88;5090834;28;20075;-64
2021/05/01 01:15:29;;;;;;;30.57;16.33;;;;;;;5.57;83.60;101216.00;5090982;28;20035;-64
2021/05/01 01:17:54;;;;;;;28.67;14.85;;;;;;;5.59;83.16;101212.25;5090680;28;20024;-64
2021/05/01 01:20:20;;;;;;;30.97;15.10;;;;;;;5.52;83.24;101208.41;5090755;28;20500;-64
2021/05/01 01:22:45;;;;;;;24.27;15.98;;;;;;;5.53;83.44;101214.56;5090983;28;20036;-64
2021/05/01 01:25:11;;;;;;;26.40;15.50;;;;;;;5.62;83.06;101213.81;5091104;28;20061;-64
2021/05/01 01:27:38;;;;;;;31.45;16.08;;;;;;;5.57;82.90;101206.25;5056188;28;20028;-64
2021/05/01 01:30:06;;;;;;;29.83;15.85;;;;;;;5.55;82.98;101207.31;5073200;28;20036;-64
2021/05/01 01:32:32;;;;;;;24.30;15.80;;;;;;;5.58;83.21;101202.63;5090884;28;20032;-64
2021/05/01 01:34:58;;;;;;;24.85;14.70;;;;;;;5.63;82.51;101195.19;5056436;28;20074;-64
2021/05/01 01:37:24;;;;;;;24.60;14.93;;;;;;;5.70;82.65;101190.25;5072851;28;20068;-64
2021/05/01 01:39:50;;;;;;;25.40;15.07;;;;;;;5.74;82.32;101207.59;5073188;28;20541;-64
2021/05/01 01:42:15;;;;;;;23.67;13.68;;;;;;;5.76;82.27;101203.03;5056297;28;20476;-64
2021/05/01 01:44:41;;;;;;;27.20;14.20;;;;;;;5.71;82.12;101192.78;5072911;28;20046;-64
2021/05/01 01:47:07;;;;;;;27.10;14.85;;;;;;;5.68;81.87;101200.94;5073033;28;20036;-64
2021/05/01 01:49:34;;;;;;;28.20;14.88;;;;;;;5.75;82.03;101195.19;5055951;28;20536;-64
2021/05/01 01:52:01;;;;;;;23.98;14.10;;;;;;;5.75;81.74;101188.06;5056258;28;20059;-64
2021/05/01 01:54:27;;;;;;;23.25;14.65;;;;;;;5.77;81.79;101195.91;5056184;28;20040;-64
2021/05/01 01:56:52;;;;;;;20.00;13.07;;;;;;;5.87;81.44;101187.09;5056258;28;20044;-64
2021/05/01 01:59:18;;;;;;;20.17;13.77;;;;;;;5.79;80.80;101194.81;5090207;28;20105;-64
2021/05/01 02:01:44;;;;;;;23.50;13.65;;;;;;;5.70;81.16;101187.59;5056088;28;20086;-64
2021/05/01 02:04:10;;;;;;;20.63;12.88;;;;;;;5.75;81.50;101195.19;5056210;28;20101;-64
2021/05/01 02:06:35;;;;;;;24.00;13.88;;;;;;;5.76;81.49;101189.78;5056235;28;20044;-64
2021/05/01 02:09:01;;;;;;;22.33;13.95;;;;;;;5.70;81.89;101192.91;5055782;28;20036;-64
2021/05/01 02:11:27;;;;;;;23.70;15.70;;;;;;;5.70;81.51;101187.59;5055998;28;20063;-64
2021/05/01 02:13:53;;;;;;;20.45;13.30;;;;;;;5.75;81.15;101190.72;5058825;28;20087;-64
2021/05/01 02:16:18;;;;;;;17.20;11.57;;;;;;;5.72;80.94;101183.03;5059718;28;20036;-64
2021/05/01 02:18:44;;;;;;;25.58;12.00;;;;;;;5.75;80.86;101182.78;5059253;28;20059;-64
2021/05/01 02:21:10;;;;;;;23.48;14.43;;;;;;;5.68;80.75;101186.88;5059872;28;20040;-64
2021/05/01 02:23:35;;;;;;;22.63;12.97;;;;;;;5.70;81.10;101183.13;5059525;28;20043;-64
2021/05/01 02:26:01;;;;;;;23.85;13.70;;;;;;;5.80;80.48;101175.31;5059687;28;20296;-64
2021/05/01 02:28:27;;;;;;;19.15;12.02;;;;;;;5.79;80.42;101183.38;5075816;28;20130;-64
2021/05/01 02:30:53;;;;;;;19.23;12.38;;;;;;;5.79;80.48;101176.28;5059494;28;20036;-64
2021/05/01 02:33:19;;;;;;;20.65;12.80;;;;;;;5.72;80.58;101183.88;5059393;28;20445;-64
2021/05/01 02:35:44;;;;;;;23.58;12.23;;;;;;;5.79;80.52;101176.28;5076045;28;20046;-64
2021/05/01 02:38:10;;;;;;;21.33;13.18;;;;;;;5.67;80.91;101174.59;5076008;28;20036;-64
2021/05/01 02:40:37;;;;;;;18.98;13.02;;;;;;;5.62;80.85;101166.16;5076116;28;20031;-64
2021/05/01 02:43:08;;;;;;;24.38;13.88;;;;;;;5.59;81.23;101167.22;5075820;28;20481;-64
2021/05/01 02:45:35;;;;;;;19.17;12.85;;;;;;;5.54;81.31;101171.22;5076025;28;20573;-64
2021/05/01 02:48:02;;;;;;;22.20;13.50;;;;;;;5.62;81.80;101166.16;5075686;28;20040;-64
2021/05/01 02:50:28;;;;;;;22.95;13.85;;;;;;;5.65;81.41;101165.94;5058902;28;20051;-64
2021/05/01 02:52:53;;;;;;;19.90;11.90;;;;;;;5.57;81.59;101163.03;5093535;28;20036;-64
2021/05/01 02:55:18;;;;;;;27.33;13.70;;;;;;;5.64;81.29;101166.88;5075205;28;20040;-64
2021/05/01 02:57:44;;;;;;;20.87;12.70;;;;;;;5.54;81.62;101161.47;5093176;28;20059;-64
2021/05/01 03:00:15;;;;;;;22.93;13.67;;;;;;;5.61;81.44;101159.19;5075295;28;20032;-64
2021/05/01 03:02:41;;;;;;;21.92;12.55;;;;;;;5.63;81.60;101155.44;5075637;28;20465;-64
2021/05/01 03:05:08;;;;;;;23.83;11.88;;;;;;;5.64;81.26;101154.50;5075258;28;20034;-64
2021/05/01 03:07:33;;;;;;;25.40;13.68;;;;;;;5.69;81.52;101146.19;5074900;28;20101;-64
2021/05/01 03:09:59;;;;;;;21.45;13.40;;;;;;;5.68;81.62;101149.78;5075152;28;20028;-64
2021/05/01 03:12:24;;;;;;;25.50;13.97;;;;;;;5.68;81.91;101145.31;5092959;28;20426;-64
2021/05/01 03:14:50;;;;;;;17.93;12.50;;;;;;;5.72;81.71;101140.63;5092622;28;20048;-64
2021/05/01 03:17:15;;;;;;;19.53;12.47;;;;;;;5.77;81.69;101148.22;5092879;28;20289;-64
2021/05/01 03:19:41;;;;;;;22.30;14.17;;;;;;;5.72;82.18;101143.28;5074731;28;20020;-64
2021/05/01 03:22:06;;;;;;;25.47;13.70;;;;;;;5.75;81.85;101137.72;5075019;28;20057;-64
2021/05/01 03:24:32;;;;;;;25.70;15.33;;;;;;;5.67;82.05;101135.69;5073792;28;20054;-65
2021/05/01 03:26:57;;;;;;;22.73;13.77;;;;;;;5.55;82.52;101128.72;5092822;28;20109;-64
2021/05/01 03:29:23;;;;;;;24.50;14.50;;;;;;;5.56;83.23;101133.06;5057481;28;20179;-64
2021/05/01 03:31:48;;;;;;;16.67;11.13;;;;;;;5.60;82.92;101131.00;5074882;28;20361;-64
2021/05/01 03:34:14;;;;;;;17.37;10.77;;;;;;;5.50;82.75;101130.88;5074953;28;20448;-65
2021/05/01 03:36:39;;;;;;;25.13;13.20;;;;;;;5.55;82.40;101130.50;5092780;28;20024;-64
2021/05/01 03:39:05;;;;;;;20.40;14.23;;;;;;;5.55;82.64;101138.47;5057760;28;20110;-63
2021/05/01 03:41:30;;;;;;;28.90;14.68;;;;;;;5.61;82.59;101133.53;5074593;28;20115;-64
2021/05/01 03:43:55;;;;;;;26.73;14.00;;;;;;;5.54;82.84;101127.03;5092261;28;20039;-64
2021/05/01 03:46:21;;;;;;;29.80;13.87;;;;;;;5.44;82.19;101137.50;5074508;28;20157;-63
2021/05/01 03:48:46;;;;;;;25.67;13.57;;;;;;;5.55;82.11;101122.56;5074132;28;20032;-64
2021/05/01 03:51:11;;;;;;;21.73;14.80;;;;;;;5.51;82.32;101132.56;5092242;28;20035;-63
2021/05/01 03:53:37;;;;;;;24.27;13.37;;;;;;;5.43;82.66;101127.00;5074398;28;20576;-63
2021/05/01 03:56:02;;;;;;;22.20;12.37;;;;;;;5.40;82.45;101125.44;5074245;28;20039;-64
2021/05/01 03:58:28;;;;;;;23.13;13.30;;;;;;;5.50;82.71;101123.78;5091805;28;20130;-64
2021/05/01 04:00:53;;;;;;;20.50;13.27;;;;;;;5.53;82.34;101127.16;5074112;28;20118;-63
2021/05/01 04:03:18;;;;;;;19.60;13.40;;;;;;;5.50;82.03;101130.88;5074243;28;20100;-63
2021/05/01 04:05:44;;;;;;;23.97;12.30;;;;;;;5.61;81.58;101124.75;5074221;28;20046;-64
2021/05/01 04:08:09;;;;;;;20.83;13.00;;;;;;;5.60;81.23;101131.84;5091604;28;20032;-64
2021/05/01 04:10:35;;;;;;;21.20;12.93;;;;;;;5.44;81.15;101123.41;5091752;28;20043;-63
2021/05/01 04:13:00;;;;;;;19.73;12.37;;;;;;;5.46;81.30;101130.28;5091931;28;20050;-64
2021/05/01 04:15:26;;;;;;;21.63;12.85;;;;;;;5.59;80.68;101129.31;5074067;28;20522;-64
2021/05/01 04:17:53;;;;;;;19.85;13.02;;;;;;;5.52;80.50;101128.13;5091681;28;20373;-63
2021/05/01 04:20:18;;;;;;;18.52;12.25;;;;;;;5.44;80.35;101129.56;5057333;28;20036;-63
2021/05/01 04:22:44;;;;;;;18.10;11.57;;;;;;;5.44;80.02;101128.72;5091911;28;20476;-63
2021/05/01 04:25:09;;;;;;;18.77;11.63;;;;;;;5.49;79.65;101122.09;5091785;28;20035;-63
2021/05/01 04:27:35;;;;;;;19.50;12.13;;;;;;;5.36;79.72;101123.16;5091421;28;20111;-64
2021/05/01 04:30:00;;;;;;;13.47;8.63;;;;;;;5.43;80.01;101127.00;5091658;28;20492;-64
2021/05/01 04:32:25;;;;;;;19.77;11.50;;;;;;;5.49;79.64;101126.53;5073851;28;20036;-64
2021/05/01 04:34:51;;;;;;;16.70;11.93;;;;;;;5.53;79.20;101125.34;5091508;28;20465;-64
2021/05/01 04:37:16;;;;;;;16.13;11.30;;;;;;;5.42;79.46;101128.81;5073455;28;20036;-64
2021/05/01 04:39:41;;;;;;;21.07;11.43;;;;;;;5.52;78.89;101118.34;5091436;28;20552;-64
2021/05/01 04:42:08;;;;;;;18.57;12.80;;;;;;;5.44;79.31;101121.63;5073825;28;20044;-64
2021/05/01 04:44:34;;;;;;;20.05;11.75;;;;;;;5.57;79.15;101120.63;5073796;28;20051;-64
2021/05/01 04:46:59;;;;;;;20.63;12.48;;;;;;;5.47;78.86;101126.66;5073763;28;20043;-63
2021/05/01 04:49:24;;;;;;;23.77;13.30;;;;;;;5.39;79.19;101129.06;5073606;28;20059;-63
2021/05/01 04:51:50;;;;;;;21.10;12.37;;;;;;;5.38;79.71;101127.38;5091453;28;20456;-63
2021/05/01 04:54:15;;;;;;;19.42;11.80;;;;;;;5.40;79.23;101125.44;5091377;28;20028;-63
2021/05/01 04:56:41;;;;;;;20.13;12.33;;;;;;;5.25;79.51;101124.84;5091370;28;20039;-64
2021/05/01 04:59:06;;;;;;;14.77;9.97;;;;;;;5.41;79.39;101136.91;5090859;28;20036;-63
2021/05/01 05:01:35;;;;;;;18.20;11.23;;;;;;;5.41;79.34;101136.91;5073380;28;20081;-63
2021/05/01 05:04:01;;;;;;;19.20;11.50;;;;;;;5.39;79.79;101138.84;5091258;28;20036;-63
2021/05/01 05:06:26;;;;;;;17.23;11.43;;;;;;;5.39;79.11;101139.66;5091082;28;20043;-63
2021/05/01 05:08:52;;;;;;;20.10;12.85;;;;;;;5.61;79.24;101143.28;5090690;28;20826;-63
2021/05/01 05:11:18;;;;;;;18.65;11.70;;;;;;;5.68;78.41;101136.53;5073219;28;20039;-63
2021/05/01 05:13:43;;;;;;;21.40;12.67;;;;;;;5.91;78.15;101140.00;5056457;28;20087;-63
2021/05/01 05:16:08;;;;;;;17.13;11.63;;;;;;;5.82;77.91;101136.28;5091006;28;20475;-64
2021/05/01 05:18:34;;;;;;;20.23;12.27;;;;;;;5.89;77.57;101134.00;5090787;28;20108;-63
2021/05/01 05:20:59;;;;;;;25.67;13.17;;;;;;;5.91;78.13;101130.25;5091028;28;20035;-63
2021/05/01 05:23:25;;;;;;;20.80;11.45;;;;;;;5.89;77.43;101129.53;5090925;28;20031;-63
2021/05/01 05:25:50;;;;;;;23.60;12.07;;;;;;;5.88;77.86;101141.09;5090970;28;20334;-63
2021/05/01 05:28:16;;;;;;;21.50;11.93;;;;;;;5.77;77.68;101143.75;5090418;28;20128;-63
2021/05/01 05:30:41;;;;;;;16.27;11.10;;;;;;;5.86;76.84;101142.19;5090785;28;20115;-63
2021/05/01 05:33:07;;;;;;;20.53;13.03;;;;;;;5.93;76.82;101154.00;5072747;28;20051;-63
2021/05/01 05:35:32;;;;;;;17.03;11.40;;;;;;;6.20;76.69;101153.59;5090667;28;20051;-63
2021/05/01 05:37:57;;;;;;;18.03;11.43;;;;;;;6.27;75.98;101154.78;5090408;28;20032;-63
2021/05/01 05:40:23;;;;;;;16.50;11.80;;;;;;;6.26;75.11;101152.28;5090817;28;20465;-64
2021/05/01 05:42:49;;;;;;;19.90;11.57;;;;;;;6.46;74.87;101163.88;5090976;28;20036;-64
2021/05/01 05:45:22;;;;;;;;;;;;;;;6.30;75.06;101159.00;5091042;28;20035;-64
2021/05/01 05:47:48;;;;;;;15.40;10.57;;;;;;;6.58;74.61;101156.72;5091613;28;19926;-65
2021/05/01 05:50:13;;;;;;;15.27;10.67;;;;;;;6.45;74.37;101156.91;5094559;28;20040;-64
2021/05/01 05:52:39;;;;;;;21.73;11.17;;;;;;;6.58;74.82;101160.25;5094657;28;20092;-64
2021/05/01 05:55:04;;;;;;;15.30;10.40;;;;;;;6.57;74.94;101163.03;5060159;28;20032;-64
2021/05/01 05:57:30;;;;;;;15.73;10.48;;;;;;;6.75;73.91;101158.84;5094238;28;20077;-63
2021/05/01 05:59:55;;;;;;;15.30;9.77;;;;;;;6.79;72.80;101159.41;5076498;28;20028;-64
2021/05/01 06:02:22;;;;;;;17.30;11.30;;;;;;;6.53;73.93;101157.09;5076495;28;20346;-64
2021/05/01 06:04:51;;;;;;;13.02;9.45;;;;;;;6.52;73.20;101156.28;5094302;28;20051;-63
2021/05/01 06:07:27;;;;;;;15.77;9.98;;;;;;;6.55;73.23;101165.78;5094116;28;20061;-63
2021/05/01 06:09:53;;;;;;;;;;;;;;;6.59;72.55;101156.63;5059854;28;20032;-64
2021/05/01 06:12:20;;;;;;;;;;;;;;;6.71;72.59;101165.38;5094620;28;19923;-63
2021/05/01 06:14:45;;;;;;;14.65;8.90;;;;;;;6.49;72.15;101158.34;5094102;28;19919;-63
2021/05/01 06:17:12;;;;;;;18.48;10.10;;;;;;;6.72;72.26;101162.59;5076252;28;20044;-64
2021/05/01 06:19:39;;;;;;;15.68;9.98;;;;;;;6.75;71.56;101157.03;5093887;28;20024;-64
2021/05/01 06:22:04;;;;;;;13.95;8.68;;;;;;;6.69;70.61;101167.31;5076321;28;20097;-64
2021/05/01 06:24:30;;;;;;;14.97;8.63;;;;;;;6.55;70.72;101165.78;5093903;28;20237;-63
2021/05/01 06:26:57;;;;;;;14.85;9.43;;;;;;;6.62;70.75;101166.13;5093870;28;20036;-63
2021/05/01 06:29:24;;;;;;;14.13;9.30;;;;;;;6.94;69.57;101158.16;5093499;28;20040;-64
2021/05/01 06:31:50;;;;;;;17.40;9.93;;;;;;;7.06;69.67;101158.94;5059657;28;20042;-63
2021/05/01 06:34:16;;;;;;;16.15;9.95;;;;;;;6.67;70.08;101156.84;5094019;28;20032;-63
2021/05/01 06:36:42;;;;;;;14.98;10.00;;;;;;;6.38;71.67;101167.19;5076291;28;20141;-64
2021/05/01 06:39:08;;;;;;;19.92;10.27;;;;;;;6.59;71.41;101158.44;5093609;28;20032;-64
2021/05/01 06:41:44;;;;;;;18.33;10.18;;;;;;;6.58;72.31;101170.00;5076195;28;20096;-64
2021/05/01 06:44:18;;;;;;;16.30;8.90;;;;;;;6.39;71.88;101173.31;5076030;28;20040;-64
2021/05/01 06:46:49;;;;;;;22.17;12.00;;;;;;;6.39;72.09;101160.94;5076082;28;20392;-64
2021/05/01 06:49:48;;;;;;;16.58;10.98;;;;;;;6.67;72.81;101164.81;5093358;28;20036;-64
2021/05/01 06:52:15;;;;;;;21.00;13.00;;;;;;;6.39;72.65;101170.66;5078654;28;20127;-64
2021/05/01 06:54:41;;;;;;;20.15;12.02;;;;;;;6.41;73.01;101176.69;5093679;28;20050;-64
2021/05/01 06:57:07;;;;;;;;;;;;;;;6.58;72.43;101173.53;5093970;28;20069;-64
2021/05/01 06:59:32;;;;;;;;;;;;;;;6.73;72.96;101164.28;5059646;28;20333;-64
2021/05/01 07:01:58;;;;;;;20.60;13.07;;;;;;;6.81;71.90;101165.44;5093573;28;19912;-71
2021/05/01 07:04:23;;;;;;;15.80;10.80;;;;;;;6.71;72.68;101166.22;5075549;28;20051;-70
2021/05/01 07:06:50;;;;;;;20.53;11.13;;;;;;;6.51;71.93;101169.69;5091925;28;20039;-70
2021/05/01 07:09:15;;;;;;;20.00;11.02;;;;;;;6.73;72.05;101169.59;5091279;28;20032;-70
2021/05/01 07:11:41;;;;;;;16.37;11.07;;;;;;;6.76;72.16;101166.66;5091522;28;20032;-70
2021/05/01 07:14:09;;;;;;;16.17;10.60;;;;;;;7.07;70.86;101172.09;5074248;28;20040;-71
2021/05/01 07:16:34;;;;;;;15.30;9.27;;;;;;;7.49;69.54;101169.41;5091854;28;20366;-70
2021/05/01 07:18:59;;;;;;;15.87;10.53;;;;;;;7.47;70.04;101162.50;5073369;28;20036;-70
2021/05/01 07:21:25;;;;;;;21.37;11.07;;;;;;;7.46;71.42;101156.38;5092219;28;20115;-71
2021/05/01 07:23:51;;;;;;;16.50;10.50;;;;;;;7.40;69.76;101156.91;5093049;28;20449;-71
2021/05/01 07:26:20;;;;;;;13.55;9.40;;;;;;;7.38;69.28;101164.16;5092928;28;20419;-71
2021/05/01 07:28:49;;;;;;;14.95;9.52;;;;;;;7.26;70.47;101163.41;5074893;28;20427;-71
2021/05/01 07:31:24;;;;;;;17.63;10.20;;;;;;;7.13;70.57;101158.28;5092749;28;20046;-71
2021/05/01 07:33:56;;;;;;;15.60;9.48;;;;;;;7.51;69.02;101159.47;5092898;28;20394;-71
2021/05/01 07:36:39;;;;;;;13.73;9.55;;;;;;;7.81;68.68;101163.09;5074887;28;20042;-71
2021/05/01 07:39:06;;;;;;;16.35;9.40;;;;;;;8.20;68.48;101156.06;5074543;28;20126;-71
2021/05/01 07:41:32;;;;;;;21.85;10.68;;;;;;;8.32;67.24;101163.94;5092420;28;20040;-71
2021/05/01 07:43:58;;;;;;;;;;;;;;;8.37;67.48;101157.22;5075118;28;20040;-71
2021/05/01 07:46:27;;;;;;;13.23;8.27;;;;;;;8.28;67.61;101158.03;5074734;28;20043;-71
2021/05/01 07:48:52;;;;;;;13.15;8.65;;;;;;;8.68;66.47;101154.47;5092100;28;20054;-71
2021/05/01 07:51:18;;;;;;;13.33;8.43;;;;;;;8.55;66.34;101149.44;5092453;28;20114;-71
2021/05/01 07:53:44;;;;;;;14.93;9.30;;;;;;;8.17;68.21;101163.47;5092415;28;20028;-71
2021/05/01 07:56:10;;;;;;;14.60;8.38;;;;;;;8.35;67.94;101159.16;5092223;28;20043;-71
2021/05/01 07:58:35;;;;;;;13.80;7.55;;;;;;;8.05;67.61;101157.41;5057548;28;20101;-71
2021/05/01 08:01:00;;;;;;;13.57;9.03;;;;;;;8.06;67.61;101158.28;5092211;28;20483;-71
2021/05/01 08:03:26;;;;;;;12.47;8.67;;;;;;;7.92;67.29;101157.69;5074215;28;20462;-71
2021/05/01 08:05:51;;;;;;;12.40;8.27;;;;;;;8.21;66.70;101162.22;5092243;28;20112;-71
2021/05/01 08:08:16;;;;;;;12.60;8.13;;;;;;;8.12;66.58;101155.06;5057247;28;20105;-71
2021/05/01 08:10:43;;;;;;;11.27;7.83;;;;;;;8.56;66.24;101161.75;5091207;28;20046;-71
2021/05/01 08:13:08;;;;;;;;;;;;;;;8.33;66.07;101158.47;5074726;28;20039;-71
2021/05/01 08:15:34;;;;;;;;;;;;;;;8.03;66.55;101154.91;5092413;28;19912;-71
2021/05/01 08:18:02;;;;;;;9.67;7.13;;;;;;;8.17;66.36;101155.50;5091590;28;19912;-71
2021/05/01 08:20:29;;;;;;;10.00;7.40;;;;;;;8.17;66.52;101151.03;5091824;28;20047;-71
2021/05/01 08:22:57;;;;;;;12.07;7.28;;;;;;;8.30;66.72;101156.09;5073899;28;20063;-71
2021/05/01 08:25:23;;;;;;;11.95;7.35;;;;;;;8.35;66.71;101156.50;5091773;28;20039;-71
2021/05/01 08:27:49;;;;;;;10.82;7.57;;;;;;;8.18;67.29;101150.03;5073510;28;20068;-71
2021/05/01 08:30:15;;;;;;;13.68;7.93;;;;;;;8.48;66.78;101147.47;5091631;28;20040;-71
2021/05/01 08:32:45;;;;;;;14.85;8.68;;;;;;;8.56;66.86;101151.09;5091675;28;20324;-71
2021/05/01 08:35:12;;;;;;;12.57;7.97;;;;;;;8.63;66.81;101140.72;5073697;28;20035;-71
2021/05/01 08:37:38;;;;;;;10.65;7.55;;;;;;;9.11;65.62;101144.31;5091229;28;20531;-71
2021/05/01 08:40:05;;;;;;;12.15;8.02;;;;;;;8.70;66.00;101144.50;5091534;28;20452;-71
2021/05/01 08:42:30;;;;;;;10.82;7.38;;;;;;;8.95;65.53;101140.44;5091460;28;20426;-71
2021/05/01 08:45:00;;;;;;;11.40;8.73;;;;;;;9.14;66.33;101142.22;5073727;28;20028;-71
2021/05/01 08:47:26;;;;;;;13.30;8.18;;;;;;;8.92;66.16;101139.88;5073555;28;20127;-71
2021/05/01 08:49:51;;;;;;;13.20;8.15;;;;;;;8.83;66.54;101142.41;5073653;28;20177;-71
2021/05/01 08:52:17;;;;;;;13.97;7.93;;;;;;;9.47;65.26;101135.53;5091504;28;20047;-65
2021/05/01 08:54:42;;;;;;;14.53;8.30;;;;;;;9.04;66.99;101134.25;5091460;28;20134;-65
2021/05/01 08:57:24;;;;;;;11.23;8.63;;;;;;;9.03;65.49;101137.06;5091306;28;20050;-64
2021/05/01 08:59:49;;;;;;;16.83;7.95;;;;;;;9.58;63.56;101131.84;5091269;28;20147;-65
2021/05/01 09:02:18;;;;;;;15.03;9.10;;;;;;;9.09;65.52;101125.84;5091399;28;20040;-64
2021/05/01 09:04:49;;;;;;;12.27;7.05;;;;;;;10.04;64.63;101127.41;5091297;28;20117;-64
2021/05/01 09:07:16;;;;;;;16.05;8.27;;;;;;;10.51;60.85;101135.28;5091291;28;20089;-65
2021/05/01 09:09:42;;;;;;;16.92;8.48;;;;;;;10.26;62.11;101125.31;5073268;28;20044;-64
2021/05/01 09:12:08;;;;;;;12.88;7.78;;;;;;;10.67;60.76;101120.38;5091265;28;20043;-65
2021/05/01 09:14:35;;;;;;;9.63;6.67;;;;;;;11.19;58.53;101133.78;5091211;28;20039;-65
2021/05/01 09:17:06;;;;;;;12.13;8.07;;;;;;;10.17;61.38;101129.72;5091239;28;20048;-64
2021/05/01 09:19:40;;;;;;;15.13;8.65;;;;;;;11.02;60.07;101121.31;5090884;28;20061;-65
2021/05/01 09:22:10;;;;;;;10.05;6.95;;;;;;;11.36;58.85;101122.22;5075190;28;20184;-65
2021/05/01 09:24:36;;;;;;;12.60;7.80;;;;;;;11.26;57.42;101113.47;5077541;28;20032;-65
2021/05/01 09:27:03;;;;;;;12.55;7.70;;;;;;;10.53;59.90;101119.91;5095442;28;20334;-65
2021/05/01 09:29:32;;;;;;;13.40;7.22;;;;;;;10.77;59.61;101121.97;5094922;28;20137;-65
2021/05/01 09:32:00;;;;;;;16.65;8.05;;;;;;;10.92;59.30;101116.91;5095242;28;20032;-65
2021/05/01 09:34:39;;;;;;;13.27;8.35;;;;;;;11.27;58.44;101115.13;5095281;28;20096;-65
2021/05/01 09:37:07;;;;;;;13.38;7.70;;;;;;;11.11;58.36;101115.03;5095229;28;20040;-65
2021/05/01 09:39:32;;;;;;;12.52;8.52;;;;;;;11.30;59.25;101109.47;5094955;28;20102;-65
2021/05/01 09:41:57;;;;;;;12.77;8.37;;;;;;;11.30;58.18;101103.28;5095219;28;20120;-65
2021/05/01 09:44:23;;;;;;;13.53;7.67;;;;;;;11.48;58.02;101093.38;5077219;28;20525;-65
2021/05/01 09:46:51;;;;;;;16.23;8.33;;;;;;;12.30;54.90;101096.31;5095087;28;20047;-65
2021/05/01 09:49:22;;;;;;;12.40;8.20;;;;;;;12.50;55.42;101094.16;5094670;28;20140;-65
2021/05/01 09:52:08;;;;;;;14.80;7.63;;;;;;;12.23;54.95;101087.28;5076996;28;20032;-65
2021/05/01 09:54:33;;;;;;;12.50;8.20;;;;;;;11.32;57.45;101095.97;5060504;28;20036;-65
2021/05/01 09:57:01;;;;;;;13.23;8.30;;;;;;;10.42;59.55;101085.47;5094884;28;20047;-64
2021/05/01 09:59:56;;;;;;;12.15;7.50;;;;;;;11.17;59.43;101088.53;5076603;28;20035;-65
2021/05/01 10:02:33;;;;;;;10.07;6.40;;;;;;;11.32;56.58;101090.63;5092888;28;20044;-65
2021/05/01 10:05:11;;;;;;;;;;;;;;;10.83;58.93;101080.44;5095138;28;20085;-65
2021/05/01 10:07:45;;;;;;;11.32;6.90;;;;;;;11.20;57.50;101076.69;5094293;28;19911;-65
2021/05/01 10:10:11;;;;;;;10.18;7.22;;;;;;;10.85;59.92;101080.31;5094370;28;20054;-65
2021/05/01 10:12:41;;;;;;;10.88;7.32;;;;;;;11.82;56.41;101077.28;5076633;28;20046;-65
2021/05/01 10:15:24;;;;;;;13.45;7.50;;;;;;;10.63;58.60;101084.28;5094375;28;20035;-65
2021/05/01 10:17:51;;;;;;;12.98;7.60;;;;;;;11.47;56.78;101077.47;5076121;28;20493;-65
2021/05/01 10:20:18;;;;;;;11.48;7.45;;;;;;;10.88;58.70;101083.47;5076427;28;20035;-65
2021/05/01 10:22:45;;;;;;;12.93;7.97;;;;;;;10.37;59.96;101079.72;5094197;28;20051;-65
2021/05/01 10:25:31;;;;;;;13.50;7.85;;;;;;;10.94;59.20;101082.03;5094209;28;20480;-65
2021/05/01 10:28:00;;;;;;;9.93;7.20;;;;;;;11.18;57.86;101076.84;5093916;28;20404;-65
2021/05/01 10:30:30;;;;;;;11.93;7.50;;;;;;;11.52;58.54;101068.00;5076218;28;20035;-65
2021/05/01 10:33:12;;;;;;;11.25;8.35;;;;;;;11.79;55.13;101071.41;5093739;28;20476;-65
2021/05/01 10:35:50;;;;;;;13.43;7.93;;;;;;;11.87;55.82;101073.28;5094198;28;20040;-65
2021/05/01 10:38:21;;;;;;;14.07;8.68;;;;;;;11.16;56.20;101084.16;5093798;28;20067;-65
2021/05/01 10:40:52;;;;;;;14.02;8.93;;;;;;;10.57;59.78;101081.25;5093904;28;20586;-64
2021/05/01 10:43:20;;;;;;;11.32;8.00;;;;;;;11.50;57.59;101074.50;5093882;28;20046;-65
2021/05/01 10:45:47;;;;;;;13.05;8.07;;;;;;;10.65;58.80;101084.97;5093882;28;20105;-65
2021/05/01 10:48:13;;;;;;;10.43;7.20;;;;;;;10.57;58.31;101081.25;5093536;28;20043;-65
2021/05/01 10:50:39;;;;;;;14.40;8.77;;;;;;;10.08;60.68;101090.59;5076016;28;20039;-64
2021/05/01 10:53:06;;;;;;;15.00;7.93;;;;;;;10.78;59.98;101088.09;5093708;28;20040;-65
2021/05/01 10:55:42;;;;;;;12.38;8.10;;;;;;;10.39;61.41;101084.94;5075864;28;20027;-64
2021/05/01 10:58:08;;;;;;;;;;;;;;;10.70;60.05;101086.22;5093824;28;20043;-64
2021/05/01 11:00:41;;;;;;;;;;;;;;;10.95;60.70;101084.53;5093949;28;19977;-65
2021/05/01 11:03:08;;;;;;;14.48;8.30;;;;;;;11.00;58.48;101078.72;5093527;28;19918;-65
2021/05/01 11:05:39;;;;;;;;;;;;;;;10.42;60.10;101071.25;5093902;28;20043;-65
2021/05/01 11:08:21;;;;;;;14.88;9.45;;;;;;;10.46;60.33;101067.31;5075444;28;19912;-72
2021/05/01 11:10:47;;;;;;;15.77;9.90;;;;;;;10.75;61.04;101077.72;5075235;28;20032;-72
2021/05/01 11:13:22;;;;;;;15.10;10.15;;;;;;;11.17;60.22;101074.34;5075476;28;20039;-72
2021/05/01 11:15:50;;;;;;;15.85;9.23;;;;;;;11.25;59.54;101069.03;5093264;28;20039;-72
2021/05/01 11:18:20;;;;;;;14.60;9.13;;;;;;;11.76;58.94;101061.88;5074954;28;20067;-72
2021/05/01 11:20:45;;;;;;;13.25;10.20;;;;;;;11.27;60.66;101067.03;5075461;28;20036;-72
2021/05/01 11:23:14;;;;;;;15.15;9.45;;;;;;;10.77;61.48;101065.06;5093180;28;20044;-71